createdAt,value
2018-04-19T00:01:33.763Z,6.60
2018-04-19T00:04:01.597Z,5.87
2018-04-19T00:06:29.968Z,6.90
2018-04-19T00:08:58.247Z,8.40
2018-04-19T00:11:25.789Z,6.53
2018-04-19T00:13:53.314Z,7.90
2018-04-19T00:16:20.909Z,6.50
2018-04-19T00:18:48.413Z,6.80
2018-04-19T00:21:15.996Z,6.50
2018-04-19T00:23:43.630Z,8.07
2018-04-19T00:26:11.121Z,6.67
2018-04-19T00:28:38.655Z,7.40
2018-04-19T00:31:06.178Z,7.10
2018-04-19T00:33:34.478Z,8.17
2018-04-19T00:36:02.019Z,6.47
2018-04-19T00:38:29.519Z,7.90
2018-04-19T00:40:57.053Z,7.87
2018-04-19T00:43:24.678Z,7.00
2018-04-19T00:45:52.985Z,7.27
2018-04-19T00:48:20.524Z,7.30
2018-04-19T00:50:48.797Z,7.70
2018-04-19T00:53:17.508Z,7.97
2018-04-19T00:55:44.997Z,6.73
2018-04-19T00:58:12.594Z,7.70
2018-04-19T01:00:40.997Z,6.63
2018-04-19T01:03:08.527Z,7.80
2018-04-19T01:05:37.275Z,6.97
2018-04-19T01:08:04.786Z,8.27
2018-04-19T01:10:32.300Z,6.80
2018-04-19T01:12:59.833Z,6.77
2018-04-19T01:15:28.117Z,9.97
2018-04-19T01:17:55.730Z,7.37
2018-04-19T01:20:23.256Z,9.40
2018-04-19T01:22:50.749Z,7.60
2018-04-19T01:25:18.287Z,7.63
2018-04-19T01:27:46.611Z,7.03
2018-04-19T01:30:14.145Z,7.00
2018-04-19T01:32:41.716Z,7.90
2018-04-19T01:35:09.213Z,6.47
2018-04-19T01:37:36.731Z,7.60
2018-04-19T01:40:04.319Z,7.93
2018-04-19T01:42:31.854Z,8.27
2018-04-19T01:45:00.252Z,7.60
2018-04-19T01:47:28.601Z,7.90
2018-04-19T01:49:56.101Z,7.13
2018-04-19T01:52:23.624Z,7.50
2018-04-19T01:54:51.526Z,7.47
2018-04-19T01:57:19.892Z,7.77
2018-04-19T01:59:47.494Z,11.77
2018-04-19T02:02:15.861Z,14.40
2018-04-19T02:04:44.225Z,8.00
2018-04-19T02:07:11.793Z,6.40
2018-04-19T02:09:39.284Z,7.90
2018-04-19T02:12:06.814Z,7.50
2018-04-19T02:14:35.156Z,8.07
2018-04-19T02:17:02.783Z,8.43
2018-04-19T02:19:30.428Z,8.43
2018-04-19T02:21:58.562Z,45.80
2018-04-19T02:24:26.074Z,11.27
2018-04-19T02:26:53.621Z,9.33
2018-04-19T02:29:21.130Z,9.20
2018-04-19T02:31:48.664Z,7.30
2018-04-19T02:34:16.184Z,8.43
2018-04-19T02:36:43.715Z,8.70
2018-04-19T02:39:11.257Z,9.03
2018-04-19T02:41:38.842Z,8.27
2018-04-19T02:44:06.356Z,9.13
2018-04-19T02:46:33.869Z,8.43
2018-04-19T02:49:02.190Z,25.43
2018-04-19T02:51:29.751Z,31.93
2018-04-19T02:53:57.451Z,23.97
2018-04-19T02:56:25.259Z,14.83
2018-04-19T02:58:52.793Z,10.07
2018-04-19T03:01:21.067Z,7.83
2018-04-19T03:03:48.632Z,8.10
2018-04-19T03:06:16.197Z,9.00
2018-04-19T03:08:43.982Z,9.00
2018-04-19T03:11:11.489Z,9.00
2018-04-19T03:13:39.831Z,9.10
2018-04-19T03:16:07.349Z,8.90
2018-04-19T03:18:34.918Z,8.90
2018-04-19T03:21:02.463Z,8.93
2018-04-19T03:23:29.953Z,8.43
2018-04-19T03:25:57.472Z,8.60
2018-04-19T03:28:25.871Z,8.30
2018-04-19T03:30:53.449Z,9.40
2018-04-19T03:33:20.988Z,24.43
2018-04-19T03:35:48.562Z,11.80
2018-04-19T03:38:16.085Z,11.40
2018-04-19T03:40:43.849Z,9.10
2018-04-19T03:43:11.771Z,8.87
2018-04-19T03:45:39.322Z,8.00
2018-04-19T03:48:06.832Z,9.77
2018-04-19T03:50:34.343Z,9.43
2018-04-19T03:53:01.886Z,8.93
2018-04-19T03:55:29.504Z,9.30
2018-04-19T03:57:57.053Z,9.63
2018-04-19T04:00:25.324Z,7.97
2018-04-19T04:02:53.629Z,9.53
2018-04-19T04:05:21.155Z,8.97
2018-04-19T04:07:49.441Z,9.77
2018-04-19T04:10:17.715Z,9.90
2018-04-19T04:12:45.248Z,9.90
2018-04-19T04:15:12.784Z,9.87
2018-04-19T04:17:52.293Z,31.90
2018-04-19T04:20:31.441Z,26.97
2018-04-19T04:23:20.793Z,12.50
2018-04-19T04:25:48.301Z,9.30
2018-04-19T04:28:15.860Z,10.33
2018-04-19T04:30:44.208Z,9.57
2018-04-19T04:33:12.028Z,10.60
2018-04-19T04:35:39.601Z,10.40
2018-04-19T04:38:07.157Z,9.90
2018-04-19T04:40:34.676Z,9.70
2018-04-19T04:43:02.190Z,8.57
2018-04-19T04:45:29.818Z,9.30
2018-04-19T04:47:57.302Z,10.90
2018-04-19T04:50:24.810Z,10.87
2018-04-19T04:52:52.448Z,10.53
2018-04-19T04:55:20.002Z,11.03
2018-04-19T04:57:47.505Z,11.90
2018-04-19T05:00:15.044Z,12.77
2018-04-19T05:02:42.566Z,9.63
2018-04-19T05:05:10.102Z,11.53
2018-04-19T05:07:37.611Z,11.03
2018-04-19T05:10:05.219Z,18.00
2018-04-19T05:12:32.726Z,29.00
2018-04-19T05:15:00.216Z,31.37
2018-04-19T05:17:27.840Z,16.97
2018-04-19T05:19:55.342Z,13.87
2018-04-19T05:22:22.881Z,12.17
2018-04-19T05:24:51.161Z,16.40
2018-04-19T05:27:19.564Z,11.03
2018-04-19T05:29:47.147Z,8.40
2018-04-19T05:32:15.533Z,9.57
2018-04-19T05:34:43.104Z,10.77
2018-04-19T05:37:10.695Z,9.93
2018-04-19T05:39:38.160Z,8.50
2018-04-19T05:42:05.763Z,6.77
2018-04-19T05:44:33.357Z,7.17
2018-04-19T05:47:01.745Z,6.47
2018-04-19T05:49:30.015Z,5.60
2018-04-19T05:51:58.356Z,6.57
2018-04-19T05:54:25.949Z,6.23
2018-04-19T05:56:53.462Z,5.97
2018-04-19T05:59:21.047Z,6.10
2018-04-19T06:01:49.178Z,5.97
2018-04-19T06:04:16.832Z,6.20
2018-04-19T06:06:44.346Z,6.40
2018-04-19T06:09:12.625Z,6.93
2018-04-19T06:11:40.920Z,6.63
2018-04-19T06:14:08.500Z,7.90
2018-04-19T06:16:36.044Z,7.87
2018-04-19T06:19:03.571Z,8.50
2018-04-19T06:21:31.857Z,8.73
2018-04-19T06:24:00.165Z,7.60
2018-04-19T06:26:27.668Z,9.10
2018-04-19T06:28:55.179Z,8.30
2018-04-19T06:31:22.779Z,7.83
2018-04-19T06:33:50.362Z,7.77
2018-04-19T06:36:18.663Z,8.00
2018-04-19T06:38:46.169Z,7.70
2018-04-19T06:41:14.504Z,9.90
2018-04-19T06:43:42.036Z,8.30
2018-04-19T06:46:09.564Z,8.67
2018-04-19T06:48:37.093Z,8.57
2018-04-19T06:51:04.600Z,8.80
2018-04-19T06:53:32.895Z,8.40
2018-04-19T06:56:01.191Z,8.10
2018-04-19T06:58:28.796Z,10.47
2018-04-19T07:00:56.385Z,7.53
2018-04-19T07:03:24.695Z,7.87
2018-04-19T07:05:52.220Z,6.30
2018-04-19T07:08:19.900Z,7.50
2018-04-19T07:10:47.408Z,6.13
2018-04-19T07:13:14.996Z,5.83
2018-04-19T07:15:43.314Z,6.83
2018-04-19T07:18:10.925Z,7.33
2018-04-19T07:20:39.741Z,6.47
2018-04-19T07:23:07.403Z,6.97
2018-04-19T07:25:35.064Z,5.93
2018-04-19T07:28:02.603Z,6.37
2018-04-19T07:30:30.883Z,6.83
2018-04-19T07:32:58.458Z,6.47
2018-04-19T07:35:25.990Z,6.83
2018-04-19T07:37:53.549Z,6.33
2018-04-19T07:40:21.045Z,6.60
2018-04-19T07:42:48.654Z,5.57
2018-04-19T07:45:16.966Z,5.20
2018-04-19T07:47:44.501Z,5.13
2018-04-19T07:50:12.026Z,5.00
2018-04-19T07:52:39.641Z,4.45
2018-04-19T07:55:07.198Z,5.32
2018-04-19T07:57:34.774Z,4.95
2018-04-19T08:00:02.314Z,4.60
2018-04-19T08:02:30.168Z,4.30
2018-04-19T08:04:57.717Z,4.40
2018-04-19T08:07:25.258Z,4.53
2018-04-19T08:09:53.984Z,4.32
2018-04-19T08:12:21.506Z,4.55
2018-04-19T08:14:49.789Z,4.50
2018-04-19T08:17:17.354Z,5.18
2018-04-19T08:19:44.877Z,4.27
2018-04-19T08:22:13.071Z,3.90
2018-04-19T08:24:41.356Z,4.28
2018-04-19T08:27:08.898Z,3.80
2018-04-19T08:29:37.244Z,4.12
2018-04-19T08:32:04.837Z,4.35
2018-04-19T08:34:32.436Z,4.22
2018-04-19T08:36:59.945Z,3.85
2018-04-19T08:39:28.286Z,4.57
2018-04-19T08:41:55.789Z,4.40
2018-04-19T08:44:24.097Z,4.57
2018-04-19T08:46:52.297Z,4.80
2018-04-19T08:49:19.832Z,4.15
2018-04-19T08:51:47.356Z,3.67
2018-04-19T08:54:15.649Z,3.95
2018-04-19T08:56:43.221Z,4.20
2018-04-19T08:59:10.737Z,3.40
2018-04-19T09:01:39.028Z,3.78
2018-04-19T09:04:06.904Z,4.93
2018-04-19T09:06:34.440Z,3.65
2018-04-19T09:09:01.934Z,4.25
2018-04-19T09:11:29.481Z,3.80
2018-04-19T09:13:57.003Z,4.68
2018-04-19T09:16:24.613Z,5.47
2018-04-19T09:18:52.149Z,4.72
2018-04-19T09:21:19.742Z,4.47
2018-04-19T09:23:47.274Z,3.90
2018-04-19T09:26:14.843Z,3.75
2018-04-19T09:28:42.438Z,4.55
2018-04-19T09:31:09.957Z,3.53
2018-04-19T09:33:37.503Z,4.80
2018-04-19T09:36:05.793Z,3.95
2018-04-19T09:38:33.335Z,4.25
2018-04-19T09:41:00.918Z,3.65
2018-04-19T09:43:29.186Z,3.80
2018-04-19T09:45:56.735Z,3.70
2018-04-19T09:48:24.303Z,3.40
2018-04-19T09:50:51.815Z,3.78
2018-04-19T09:53:20.195Z,4.57
2018-04-19T09:55:48.469Z,3.83
2018-04-19T09:58:16.066Z,4.07
2018-04-19T10:00:45.423Z,3.85
2018-04-19T10:03:18.669Z,3.85
2018-04-19T10:05:46.949Z,3.42
2018-04-19T10:08:14.446Z,3.43
2018-04-19T10:10:42.766Z,3.00
2018-04-19T10:13:10.329Z,4.03
2018-04-19T10:15:37.895Z,3.33
2018-04-19T10:18:05.433Z,3.30
2018-04-19T10:20:33.008Z,3.53
2018-04-19T10:23:00.574Z,3.92
2018-04-19T10:25:28.109Z,3.30
2018-04-19T10:27:55.649Z,3.83
2018-04-19T10:30:25.178Z,3.70
2018-04-19T10:32:52.686Z,3.53
2018-04-19T10:35:20.213Z,3.42
2018-04-19T10:37:47.729Z,4.10
2018-04-19T10:40:16.008Z,3.50
2018-04-19T10:42:43.533Z,3.50
2018-04-19T10:45:11.121Z,3.40
2018-04-19T10:47:38.681Z,3.80
2018-04-19T10:50:06.993Z,3.30
2018-04-19T10:52:34.522Z,3.70
2018-04-19T10:55:02.298Z,3.30
2018-04-19T10:57:29.842Z,3.30
2018-04-19T10:59:57.424Z,4.15
2018-04-19T11:02:24.972Z,3.67
2018-04-19T11:04:52.510Z,3.45
2018-04-19T11:07:20.794Z,3.17
2018-04-19T11:09:48.349Z,3.35
2018-04-19T11:12:16.716Z,3.72
2018-04-19T11:14:44.978Z,4.50
2018-04-19T11:17:13.314Z,3.15
2018-04-19T11:19:40.847Z,4.00
2018-04-19T11:22:09.255Z,3.57
2018-04-19T11:24:36.800Z,3.25
2018-04-19T11:27:04.330Z,4.30
2018-04-19T11:29:32.615Z,3.92
2018-04-19T11:32:00.165Z,3.80
2018-04-19T11:34:28.446Z,4.55
2018-04-19T11:36:56.018Z,4.23
2018-04-19T11:39:23.581Z,3.35
2018-04-19T11:41:51.219Z,4.12
2018-04-19T11:44:18.766Z,4.60
2018-04-19T11:46:47.074Z,7.47
2018-04-19T11:49:14.572Z,4.10
2018-04-19T11:51:42.147Z,3.90
2018-04-19T11:54:09.676Z,4.07
2018-04-19T11:56:37.253Z,3.67
2018-04-19T11:59:05.595Z,3.60
2018-04-19T12:01:33.105Z,4.70
2018-04-19T12:04:01.695Z,4.95
2018-04-19T12:06:29.997Z,4.78
2018-04-19T12:08:57.529Z,3.80
2018-04-19T12:11:25.964Z,4.10
2018-04-19T12:13:53.497Z,4.27
2018-04-19T12:16:21.046Z,4.60
2018-04-19T12:18:48.614Z,4.60
2018-04-19T12:21:16.127Z,3.57
2018-04-19T12:23:45.862Z,4.13
2018-04-19T12:26:13.484Z,4.03
2018-04-19T12:28:41.038Z,4.40
2018-04-19T12:31:08.545Z,4.03
2018-04-19T12:33:36.218Z,3.70
2018-04-19T12:36:03.717Z,3.83
2018-04-19T12:38:31.260Z,4.10
2018-04-19T12:40:58.810Z,4.10
2018-04-19T12:43:26.322Z,3.90
2018-04-19T12:45:53.845Z,4.27
2018-04-19T12:48:21.439Z,4.40
2018-04-19T12:50:48.948Z,4.00
2018-04-19T12:53:16.907Z,4.43
2018-04-19T12:55:44.421Z,4.30
2018-04-19T12:58:12.698Z,3.70
2018-04-19T13:00:41.196Z,4.43
2018-04-19T13:03:08.707Z,4.03
2018-04-19T13:05:36.246Z,4.17
2018-04-19T13:08:03.769Z,3.83
2018-04-19T13:10:31.353Z,3.57
2018-04-19T13:12:58.928Z,3.83
2018-04-19T13:15:27.970Z,3.97
2018-04-19T13:17:55.539Z,3.77
2018-04-19T13:20:23.051Z,4.57
2018-04-19T13:22:50.605Z,4.67
2018-04-19T13:25:18.142Z,6.50
2018-04-19T13:27:45.665Z,4.30
2018-04-19T13:30:13.213Z,3.93
2018-04-19T13:32:40.787Z,3.60
2018-04-19T13:35:08.350Z,4.00
2018-04-19T13:37:35.870Z,4.27
2018-04-19T13:40:04.147Z,4.30
2018-04-19T13:42:31.787Z,3.20
2018-04-19T13:44:59.281Z,3.73
2018-04-19T13:47:26.855Z,3.27
2018-04-19T13:49:54.414Z,3.60
2018-04-19T13:52:21.912Z,3.40
2018-04-19T13:54:50.996Z,3.23
2018-04-19T13:57:18.527Z,3.40
2018-04-19T13:59:46.057Z,2.90
2018-04-19T14:02:13.641Z,3.97
2018-04-19T14:04:41.161Z,3.47
2018-04-19T14:07:09.458Z,3.33
2018-04-19T14:09:36.992Z,2.67
2018-04-19T14:12:04.923Z,3.20
2018-04-19T14:14:32.537Z,3.70
2018-04-19T14:17:00.104Z,4.50
2018-04-19T14:19:27.840Z,3.30
2018-04-19T14:21:56.182Z,2.93
2018-04-19T14:24:23.721Z,3.47
2018-04-19T14:26:51.955Z,3.03
2018-04-19T14:29:19.557Z,3.30
2018-04-19T14:31:48.673Z,2.60
2018-04-19T14:34:16.282Z,2.87
2018-04-19T14:36:43.927Z,4.67
2018-04-19T14:39:12.279Z,3.07
2018-04-19T14:41:39.857Z,2.90
2018-04-19T14:44:09.167Z,3.10
2018-04-19T14:46:36.787Z,3.40
2018-04-19T14:49:04.308Z,3.17
2018-04-19T14:51:31.908Z,2.50
2018-04-19T14:53:59.453Z,2.73
2018-04-19T14:56:26.980Z,2.70
2018-04-19T14:58:54.512Z,3.60
2018-04-19T15:01:22.797Z,2.37
2018-04-19T15:03:50.407Z,2.70
2018-04-19T15:06:17.926Z,2.67
2018-04-19T15:08:45.587Z,2.63
2018-04-19T15:11:13.128Z,3.07
2018-04-19T15:13:41.479Z,2.50
2018-04-19T15:16:10.111Z,3.90
2018-04-19T15:18:37.695Z,2.77
2018-04-19T15:21:05.392Z,3.40
2018-04-19T15:23:32.955Z,2.57
2018-04-19T15:26:00.837Z,2.80
2018-04-19T15:28:28.356Z,2.40
2018-04-19T15:30:55.927Z,3.10
2018-04-19T15:33:24.463Z,3.03
2018-04-19T15:35:51.976Z,2.50
2018-04-19T15:38:20.292Z,3.40
2018-04-19T15:40:48.551Z,2.30
2018-04-19T15:43:16.132Z,2.87
2018-04-19T15:45:45.007Z,2.87
2018-04-19T15:48:12.564Z,2.87
2018-04-19T15:50:41.196Z,3.50
2018-04-19T15:53:08.751Z,2.90
2018-04-19T15:55:36.248Z,3.20
2018-04-19T15:58:05.301Z,3.20
2018-04-19T16:00:32.866Z,2.67
2018-04-19T16:03:00.525Z,2.87
2018-04-19T16:05:28.612Z,2.93
2018-04-19T16:07:56.176Z,3.70
2018-04-19T16:10:25.106Z,2.80
2018-04-19T16:12:52.988Z,3.30
2018-04-19T16:15:20.517Z,2.90
2018-04-19T16:17:48.214Z,2.57
2018-04-19T16:20:15.773Z,2.78
2018-04-19T16:22:43.606Z,2.70
2018-04-19T16:25:11.148Z,3.03
2018-04-19T16:27:39.446Z,3.40
2018-04-19T16:30:08.012Z,2.30
2018-04-19T16:32:36.415Z,2.90
2018-04-19T16:35:04.847Z,3.30
2018-04-19T16:37:33.209Z,3.33
2018-04-19T16:40:00.671Z,3.10
2018-04-19T16:42:28.462Z,3.17
2018-04-19T16:44:56.738Z,2.50
2018-04-19T16:47:25.174Z,2.90
2018-04-19T16:49:52.711Z,2.83
2018-04-19T16:52:20.314Z,3.17
2018-04-19T16:54:48.907Z,2.93
2018-04-19T16:57:16.437Z,2.83
2018-04-19T16:59:43.949Z,2.90
2018-04-19T17:02:12.534Z,3.23
2018-04-19T17:04:40.937Z,3.47
2018-04-19T17:07:08.485Z,2.77
2018-04-19T17:09:35.980Z,3.10
2018-04-19T17:12:04.644Z,2.57
2018-04-19T17:14:33.029Z,3.67
2018-04-19T17:17:01.701Z,2.90
2018-04-19T17:19:29.258Z,2.80
2018-04-19T17:21:56.890Z,2.80
2018-04-19T17:24:24.799Z,2.83
2018-04-19T17:26:52.349Z,2.83
2018-04-19T17:29:20.993Z,3.50
2018-04-19T17:31:48.512Z,3.10
2018-04-19T17:34:17.347Z,3.80
2018-04-19T17:36:57.978Z,4.10
2018-04-19T17:39:28.475Z,3.20
2018-04-19T17:41:56.256Z,3.70
2018-04-19T17:44:26.907Z,3.53
2018-04-19T17:46:55.413Z,3.60
2018-04-19T17:49:23.536Z,4.43
2018-04-19T17:51:52.068Z,3.20
2018-04-19T17:54:30.053Z,4.07
2018-04-19T17:57:00.635Z,4.00
2018-04-19T17:59:28.899Z,4.23
2018-04-19T18:01:56.777Z,3.50
2018-04-19T18:04:25.268Z,4.40
2018-04-19T18:06:53.692Z,4.70
2018-04-19T18:09:21.639Z,4.27
2018-04-19T18:11:50.523Z,4.27
2018-04-19T18:14:23.405Z,3.67
2018-04-19T18:16:52.030Z,4.70
2018-04-19T18:19:32.098Z,4.70
2018-04-19T18:21:59.948Z,6.07
2018-04-19T18:24:27.794Z,4.80
2018-04-19T18:26:56.659Z,4.20
2018-04-19T18:29:24.981Z,4.30
2018-04-19T18:31:52.705Z,4.47
2018-04-19T18:34:20.410Z,4.23
2018-04-19T18:36:48.520Z,4.67
2018-04-19T18:39:16.343Z,5.10
2018-04-19T18:41:45.070Z,5.00
2018-04-19T18:44:13.320Z,5.27
2018-04-19T18:46:41.183Z,5.70
2018-04-19T18:49:09.602Z,6.87
2018-04-19T18:51:37.283Z,6.03
2018-04-19T18:54:05.026Z,8.30
2018-04-19T18:56:33.637Z,8.40
2018-04-19T18:59:02.849Z,8.63
2018-04-19T19:01:30.565Z,8.27
2018-04-19T19:03:59.681Z,9.00
2018-04-19T19:06:30.557Z,8.47
2018-04-19T19:08:58.558Z,7.10
2018-04-19T19:11:36.281Z,7.17
2018-04-19T19:14:03.803Z,7.40
2018-04-19T19:16:31.338Z,8.43
2018-04-19T19:19:10.751Z,7.40
2018-04-19T19:21:39.467Z,7.17
2018-04-19T19:24:18.734Z,7.13
2018-04-19T19:26:47.299Z,6.70
2018-04-19T19:29:16.037Z,6.37
2018-04-19T19:31:56.427Z,6.53
2018-04-19T19:34:23.971Z,7.23
2018-04-19T19:36:52.411Z,7.27
2018-04-19T19:39:20.814Z,7.47
2018-04-19T19:41:48.360Z,8.13
2018-04-19T19:44:29.709Z,8.00
2018-04-19T19:46:57.301Z,7.00
2018-04-19T19:49:25.584Z,9.90
2018-04-19T19:51:55.176Z,8.37
2018-04-19T19:54:22.871Z,8.97
2018-04-19T19:56:51.128Z,8.10
2018-04-19T19:59:18.609Z,8.23
2018-04-19T20:01:46.140Z,8.80
2018-04-19T20:04:19.872Z,7.37
2018-04-19T20:06:47.397Z,7.20
2018-04-19T20:09:24.913Z,6.40
2018-04-19T20:11:53.571Z,7.97
2018-04-19T20:14:21.873Z,7.20
2018-04-19T20:16:59.562Z,6.93
2018-04-19T20:19:27.826Z,7.40
2018-04-19T20:21:55.447Z,8.03
2018-04-19T20:24:22.997Z,9.00
2018-04-19T20:27:02.883Z,7.80
2018-04-19T20:29:30.413Z,7.47
2018-04-19T20:32:00.514Z,7.83
2018-04-19T20:34:40.705Z,7.83
2018-04-19T20:37:18.695Z,7.70
2018-04-19T20:40:06.628Z,7.83
2018-04-19T20:42:39.417Z,8.40
2018-04-19T20:45:08.210Z,7.53
2018-04-19T20:47:37.296Z,7.00
2018-04-19T20:50:06.678Z,7.50
2018-04-19T20:52:35.427Z,7.50
2018-04-19T20:55:14.562Z,7.80
2018-04-19T20:57:43.743Z,8.00
2018-04-19T21:00:12.389Z,8.00
2018-04-19T21:02:40.812Z,8.33
2018-04-19T21:05:10.828Z,6.73
2018-04-19T21:07:40.366Z,6.93
2018-04-19T21:10:08.598Z,5.80
2018-04-19T21:12:37.847Z,7.83
2018-04-19T21:15:06.155Z,6.93
2018-04-19T21:17:33.688Z,6.97
2018-04-19T21:20:01.248Z,7.17
2018-04-19T21:22:28.770Z,6.30
2018-04-19T21:24:56.514Z,7.70
2018-04-19T21:27:24.090Z,6.87
2018-04-19T21:29:51.665Z,7.23
2018-04-19T21:32:19.182Z,7.30
2018-04-19T21:34:47.094Z,8.20
2018-04-19T21:37:14.598Z,8.47
2018-04-19T21:39:42.160Z,6.87
2018-04-19T21:42:09.720Z,7.30
2018-04-19T21:44:37.216Z,8.57
2018-04-19T21:47:04.826Z,6.97
2018-04-19T21:49:32.351Z,7.27
2018-04-19T21:51:59.885Z,7.37
2018-04-19T21:54:27.514Z,7.30
2018-04-19T21:56:55.008Z,7.43
2018-04-19T21:59:22.709Z,6.40
2018-04-19T22:01:51.022Z,7.90
2018-04-19T22:04:18.519Z,7.30
2018-04-19T22:06:46.805Z,7.73
2018-04-19T22:09:15.175Z,7.77
2018-04-19T22:11:42.747Z,6.73
2018-04-19T22:14:11.017Z,6.90
2018-04-19T22:16:39.327Z,6.40
2018-04-19T22:19:16.880Z,5.70
2018-04-19T22:21:45.266Z,6.53
2018-04-19T22:24:13.558Z,6.60
2018-04-19T22:26:41.108Z,7.00
2018-04-19T22:29:09.376Z,7.17
2018-04-19T22:31:37.655Z,6.83
2018-04-19T22:34:06.081Z,7.33
2018-04-19T22:36:33.716Z,8.30
2018-04-19T22:39:01.364Z,7.43
2018-04-19T22:41:29.651Z,6.90
2018-04-19T22:43:57.305Z,7.17
2018-04-19T22:46:24.874Z,7.47
2018-04-19T22:48:52.428Z,6.20
2018-04-19T22:51:19.965Z,7.40
2018-04-19T22:53:48.251Z,6.70
2018-04-19T22:56:15.787Z,6.77
2018-04-19T22:58:44.082Z,7.03
2018-04-19T23:01:11.654Z,6.80
2018-04-19T23:03:39.322Z,7.03
2018-04-19T23:06:06.862Z,7.60
2018-04-19T23:08:34.422Z,7.07
2018-04-19T23:11:01.994Z,7.20
2018-04-19T23:13:29.846Z,6.07
2018-04-19T23:15:57.354Z,7.90
2018-04-19T23:18:24.912Z,8.20
2018-04-19T23:20:52.461Z,8.00
2018-04-19T23:23:19.998Z,6.97
2018-04-19T23:25:47.640Z,6.80
2018-04-19T23:28:15.220Z,7.80
2018-04-19T23:30:42.844Z,7.50
2018-04-19T23:33:10.369Z,7.13
2018-04-19T23:35:37.910Z,6.53
2018-04-19T23:38:05.451Z,7.40
2018-04-19T23:40:32.978Z,7.20
2018-04-19T23:43:00.528Z,6.33
2018-04-19T23:45:29.448Z,7.17
2018-04-19T23:47:56.936Z,6.57
2018-04-19T23:50:25.484Z,7.57
2018-04-19T23:52:53.005Z,7.80
2018-04-19T23:55:20.523Z,6.50
2018-04-19T23:57:48.071Z,7.23
